createdAt,value
2018-05-26T00:01:11.380Z,15.40
2018-05-26T00:03:39.629Z,15.30
2018-05-26T00:06:07.124Z,15.30
2018-05-26T00:08:35.332Z,15.30
2018-05-26T00:11:02.816Z,15.30
2018-05-26T00:13:30.332Z,15.30
2018-05-26T00:15:58.104Z,15.20
2018-05-26T00:18:28.622Z,15.20
2018-05-26T00:20:56.868Z,15.20
2018-05-26T00:23:24.723Z,15.20
2018-05-26T00:25:52.201Z,15.10
2018-05-26T00:28:19.679Z,15.10
2018-05-26T00:30:47.212Z,15.10
2018-05-26T00:33:14.669Z,15.00
2018-05-26T00:35:42.140Z,15.10
2018-05-26T00:38:09.596Z,15.10
2018-05-26T00:40:38.016Z,15.10
2018-05-26T00:43:05.728Z,15.00
2018-05-26T00:45:34.007Z,15.00
2018-05-26T00:48:01.656Z,15.00
2018-05-26T00:50:29.223Z,15.00
2018-05-26T00:52:57.628Z,15.00
2018-05-26T00:55:25.133Z,15.00
2018-05-26T00:57:52.920Z,15.00
2018-05-26T01:00:20.381Z,15.00
2018-05-26T01:02:53.191Z,14.90
2018-05-26T01:05:20.701Z,14.90
2018-05-26T01:07:48.189Z,14.90
2018-05-26T01:10:15.648Z,14.90
2018-05-26T01:12:43.412Z,14.90
2018-05-26T01:15:12.382Z,14.80
2018-05-26T01:17:44.261Z,14.80
2018-05-26T01:20:12.078Z,14.80
2018-05-26T01:22:39.548Z,14.70
2018-05-26T01:25:07.132Z,14.70
2018-05-26T01:27:34.609Z,14.70
2018-05-26T01:30:02.217Z,14.70
2018-05-26T01:32:29.823Z,14.70
2018-05-26T01:35:04.433Z,14.70
2018-05-26T01:37:32.157Z,14.70
2018-05-26T01:39:59.644Z,14.60
2018-05-26T01:42:27.115Z,14.60
2018-05-26T01:44:54.580Z,14.60
2018-05-26T01:47:23.053Z,14.50
2018-05-26T01:49:51.336Z,14.50
2018-05-26T01:52:18.838Z,14.50
2018-05-26T01:54:46.352Z,14.40
2018-05-26T01:57:13.921Z,14.40
2018-05-26T01:59:41.393Z,14.40
2018-05-26T02:02:09.551Z,14.40
2018-05-26T02:04:37.006Z,14.40
2018-05-26T02:07:04.617Z,14.40
2018-05-26T02:09:32.127Z,14.30
2018-05-26T02:11:59.635Z,14.40
2018-05-26T02:14:27.118Z,14.40
2018-05-26T02:16:54.597Z,14.30
2018-05-26T02:19:22.843Z,14.30
2018-05-26T02:21:50.317Z,14.20
2018-05-26T02:24:18.594Z,14.30
2018-05-26T02:26:46.064Z,14.20
2018-05-26T02:29:13.715Z,14.20
2018-05-26T02:31:41.272Z,14.20
2018-05-26T02:34:12.786Z,14.20
2018-05-26T02:36:40.398Z,14.30
2018-05-26T02:39:08.862Z,14.20
2018-05-26T02:41:36.340Z,14.10
2018-05-26T02:44:03.794Z,14.10
2018-05-26T02:46:31.287Z,14.10
2018-05-26T02:49:02.184Z,14.10
2018-05-26T02:51:29.693Z,14.00
2018-05-26T02:53:58.294Z,14.00
2018-05-26T02:56:25.785Z,14.00
2018-05-26T02:58:53.562Z,14.00
2018-05-26T03:01:21.040Z,14.00
2018-05-26T03:03:48.039Z,14.00
2018-05-26T03:06:22.028Z,14.00
2018-05-26T03:08:55.003Z,14.00
2018-05-26T03:11:28.845Z,14.00
2018-05-26T03:14:03.389Z,14.00
2018-05-26T03:16:31.674Z,14.10
2018-05-26T03:19:00.869Z,14.00
2018-05-26T03:21:28.380Z,14.00
2018-05-26T03:23:55.857Z,14.00
2018-05-26T03:26:23.337Z,14.00
2018-05-26T03:28:50.801Z,14.00
2018-05-26T03:31:19.021Z,14.00
2018-05-26T03:33:46.482Z,14.00
2018-05-26T03:36:13.991Z,14.00
2018-05-26T03:38:41.474Z,14.00
2018-05-26T03:41:09.037Z,14.10
2018-05-26T03:43:36.507Z,14.10
2018-05-26T03:46:04.115Z,14.10
2018-05-26T03:48:31.584Z,14.30
2018-05-26T03:51:03.585Z,14.50
2018-05-26T03:53:31.161Z,14.50
2018-05-26T03:56:10.483Z,14.60
2018-05-26T03:58:49.807Z,14.70
2018-05-26T04:01:17.264Z,14.80
2018-05-26T04:03:44.714Z,15.00
2018-05-26T04:06:15.415Z,15.10
2018-05-26T04:08:42.960Z,15.20
2018-05-26T04:11:11.088Z,15.30
2018-05-26T04:13:38.530Z,15.40
2018-05-26T04:16:06.027Z,15.50
2018-05-26T04:18:33.521Z,15.60
2018-05-26T04:21:04.723Z,15.80
2018-05-26T04:23:32.206Z,16.30
2018-05-26T04:26:00.621Z,16.80
2018-05-26T04:28:28.917Z,17.40
2018-05-26T04:30:56.379Z,17.40
2018-05-26T04:33:23.872Z,17.50
2018-05-26T04:35:51.357Z,17.60
2018-05-26T04:38:18.876Z,17.70
2018-05-26T04:40:46.387Z,17.70
2018-05-26T04:43:14.617Z,17.50
2018-05-26T04:45:42.074Z,17.50
2018-05-26T04:48:09.535Z,18.00
2018-05-26T04:50:37.024Z,18.70
2018-05-26T04:53:04.505Z,19.30
2018-05-26T04:55:31.985Z,19.80
2018-05-26T04:57:59.702Z,20.40
2018-05-26T05:00:29.118Z,22.70
2018-05-26T05:02:56.583Z,22.60
2018-05-26T05:05:24.136Z,23.60
2018-05-26T05:07:51.638Z,24.60
2018-05-26T05:10:19.100Z,25.40
2018-05-26T05:12:46.580Z,25.90
2018-05-26T05:15:14.040Z,26.10
2018-05-26T05:17:43.539Z,26.60
2018-05-26T05:20:11.051Z,26.60
2018-05-26T05:22:38.514Z,26.80
2018-05-26T05:25:06.590Z,27.30
2018-05-26T05:27:34.092Z,28.00
2018-05-26T05:30:01.567Z,28.70
2018-05-26T05:32:29.878Z,29.60
2018-05-26T05:34:57.316Z,29.50
2018-05-26T05:37:26.378Z,30.30
2018-05-26T05:39:53.876Z,30.20
2018-05-26T05:42:21.337Z,30.50
2018-05-26T05:44:48.797Z,30.70
2018-05-26T05:47:16.285Z,30.90
2018-05-26T05:49:43.764Z,30.80
2018-05-26T05:52:22.581Z,30.70
2018-05-26T05:54:50.050Z,30.90
2018-05-26T05:57:17.552Z,31.10
2018-05-26T05:59:45.944Z,31.30
2018-05-26T06:02:13.419Z,31.70
2018-05-26T06:04:40.925Z,31.80
2018-05-26T06:07:08.484Z,31.80
2018-05-26T06:09:35.942Z,31.70
2018-05-26T06:12:03.447Z,31.60
2018-05-26T06:14:31.032Z,31.50
2018-05-26T06:16:59.432Z,31.70
2018-05-26T06:19:26.931Z,31.70
2018-05-26T06:21:54.406Z,31.50
2018-05-26T06:24:21.865Z,31.30
2018-05-26T06:26:49.343Z,31.10
2018-05-26T06:29:16.807Z,30.90
2018-05-26T06:31:44.331Z,30.60
2018-05-26T06:34:11.767Z,29.80
2018-05-26T06:36:39.259Z,28.20
2018-05-26T06:39:07.659Z,26.70
2018-05-26T06:41:35.217Z,25.20
2018-05-26T06:44:02.673Z,23.80
2018-05-26T06:46:30.173Z,22.80
2018-05-26T06:48:57.679Z,22.20
2018-05-26T06:51:25.219Z,21.70
2018-05-26T06:53:57.165Z,21.20
2018-05-26T06:56:24.648Z,21.10
2018-05-26T06:58:52.121Z,21.00
2018-05-26T07:01:19.597Z,20.80
2018-05-26T07:03:47.110Z,20.80
2018-05-26T07:06:14.573Z,20.80
2018-05-26T07:11:20.436Z,20.70
2018-05-26T07:13:47.891Z,20.60
2018-05-26T07:16:15.366Z,20.60
2018-05-26T07:18:42.873Z,20.60
2018-05-26T07:21:10.365Z,20.60
2018-05-26T07:23:41.346Z,20.60
2018-05-26T07:26:08.846Z,20.60
2018-05-26T07:28:36.785Z,20.50
2018-05-26T07:31:04.276Z,20.50
2018-05-26T07:33:31.743Z,20.60
2018-05-26T07:35:59.188Z,20.80
2018-05-26T07:38:30.806Z,20.80
2018-05-26T07:40:58.268Z,20.80
2018-05-26T07:43:26.501Z,20.90
2018-05-26T07:45:54.026Z,20.90
2018-05-26T07:48:21.482Z,21.00
2018-05-26T07:50:48.941Z,21.00
2018-05-26T07:53:16.573Z,21.00
2018-05-26T07:55:47.179Z,21.00
2018-05-26T07:58:17.081Z,21.10
2018-05-26T08:00:44.560Z,21.10
2018-05-26T08:03:12.058Z,21.20
2018-05-26T08:05:40.298Z,21.30
2018-05-26T08:08:07.841Z,21.50
2018-05-26T08:10:39.657Z,21.60
2018-05-26T08:13:07.212Z,21.70
2018-05-26T08:15:36.275Z,21.90
2018-05-26T08:18:03.774Z,21.90
2018-05-26T08:20:31.274Z,21.90
2018-05-26T08:22:58.729Z,22.00
2018-05-26T08:25:26.180Z,22.00
2018-05-26T08:27:55.076Z,22.30
2018-05-26T08:30:22.552Z,22.20
2018-05-26T08:32:50.020Z,22.40
2018-05-26T08:35:17.491Z,22.40
2018-05-26T08:37:45.027Z,22.50
2018-05-26T08:40:12.778Z,22.60
2018-05-26T08:42:43.668Z,22.70
2018-05-26T08:45:11.481Z,22.80
2018-05-26T08:47:38.960Z,22.90
2018-05-26T08:50:06.429Z,23.00
2018-05-26T08:52:33.930Z,23.10
2018-05-26T08:55:01.432Z,23.20
2018-05-26T08:57:29.737Z,23.50
2018-05-26T08:59:58.111Z,23.50
2018-05-26T09:02:25.592Z,23.60
2018-05-26T09:04:53.077Z,23.60
2018-05-26T09:07:20.571Z,23.70
2018-05-26T09:09:48.810Z,24.00
2018-05-26T09:12:21.999Z,24.00
2018-05-26T09:14:52.641Z,24.00
2018-05-26T09:17:20.137Z,23.90
2018-05-26T09:19:49.357Z,24.00
2018-05-26T09:22:17.772Z,24.10
2018-05-26T09:24:46.125Z,24.20
2018-05-26T09:27:16.823Z,24.50
2018-05-26T09:29:45.080Z,24.60
2018-05-26T09:32:15.163Z,24.60
2018-05-26T09:34:43.476Z,24.60
2018-05-26T09:37:15.272Z,24.80
2018-05-26T09:39:44.508Z,24.80
2018-05-26T09:42:15.927Z,24.80
2018-05-26T09:44:44.567Z,24.90
2018-05-26T09:47:13.060Z,25.00
2018-05-26T09:49:40.646Z,25.00
2018-05-26T09:52:08.978Z,25.00
2018-05-26T09:54:38.597Z,25.00
2018-05-26T09:57:06.368Z,24.90
2018-05-26T09:59:34.240Z,24.90
2018-05-26T10:02:03.851Z,24.90
2018-05-26T10:04:31.369Z,24.90
2018-05-26T10:06:58.859Z,25.20
2018-05-26T10:09:27.101Z,25.50
2018-05-26T10:11:54.681Z,25.50
2018-05-26T10:14:22.178Z,25.70
2018-05-26T10:16:49.638Z,25.80
2018-05-26T10:19:18.048Z,25.90
2018-05-26T10:21:45.523Z,26.20
2018-05-26T10:24:13.252Z,26.20
2018-05-26T10:26:44.833Z,26.30
2018-05-26T10:29:13.333Z,26.30
2018-05-26T10:31:41.707Z,26.40
2018-05-26T10:34:09.860Z,26.70
2018-05-26T10:36:38.644Z,26.90
2018-05-26T10:39:07.945Z,27.00
2018-05-26T10:41:40.358Z,27.10
2018-05-26T10:46:44.160Z,27.40
2018-05-26T10:49:13.014Z,27.50
2018-05-26T10:51:40.578Z,27.70
2018-05-26T10:54:08.149Z,27.70
2018-05-26T10:56:36.992Z,27.60
2018-05-26T10:59:05.138Z,27.40
2018-05-26T11:01:32.780Z,27.30
2018-05-26T11:04:03.036Z,27.30
2018-05-26T11:09:25.149Z,27.80
2018-05-26T11:11:55.162Z,27.80
2018-05-26T11:14:24.236Z,27.80
2018-05-26T11:16:51.883Z,27.80
2018-05-26T11:19:20.377Z,27.50
2018-05-26T11:21:47.952Z,27.40
2018-05-26T11:24:16.965Z,27.50
2018-05-26T11:26:44.817Z,27.50
2018-05-26T11:29:14.121Z,27.90
2018-05-26T11:31:41.915Z,27.80
2018-05-26T11:34:09.376Z,28.10
2018-05-26T11:36:38.596Z,27.70
2018-05-26T11:39:06.093Z,27.70
2018-05-26T11:41:33.837Z,27.60
2018-05-26T11:44:03.049Z,27.70
2018-05-26T11:46:30.592Z,27.70
2018-05-26T11:48:58.992Z,27.70
2018-05-26T11:51:27.011Z,27.70
2018-05-26T11:53:54.837Z,27.50
2018-05-26T11:56:22.749Z,27.50
2018-05-26T11:58:51.888Z,27.20
2018-05-26T12:01:19.406Z,27.20
2018-05-26T12:03:48.169Z,26.90
2018-05-26T12:06:16.314Z,26.70
2018-05-26T12:08:44.787Z,26.70
2018-05-26T12:11:13.408Z,26.70
2018-05-26T12:13:42.048Z,26.80
2018-05-26T12:16:09.576Z,26.90
2018-05-26T12:18:38.177Z,26.90
2018-05-26T12:21:09.286Z,26.50
2018-05-26T12:23:37.865Z,26.30
2018-05-26T12:26:06.844Z,26.30
2018-05-26T12:28:38.825Z,26.20
2018-05-26T12:31:06.701Z,26.20
2018-05-26T12:33:34.256Z,26.30
2018-05-26T12:36:03.124Z,26.30
2018-05-26T12:38:30.620Z,26.30
2018-05-26T12:40:58.129Z,26.30
2018-05-26T12:43:25.657Z,26.40
2018-05-26T12:45:53.266Z,26.40
2018-05-26T12:48:20.757Z,26.70
2018-05-26T12:50:48.234Z,26.90
2018-05-26T12:53:15.811Z,26.90
2018-05-26T12:55:43.267Z,26.90
2018-05-26T12:58:10.724Z,26.80
2018-05-26T13:00:38.244Z,26.80
2018-05-26T13:03:05.741Z,26.80
2018-05-26T13:05:34.152Z,26.70
2018-05-26T13:08:01.612Z,26.60
2018-05-26T13:10:29.094Z,26.50
2018-05-26T13:12:57.357Z,26.60
2018-05-26T13:15:25.638Z,26.50
2018-05-26T13:17:53.137Z,26.50
2018-05-26T13:20:20.589Z,26.60
2018-05-26T13:22:48.083Z,26.70
2018-05-26T13:25:15.582Z,26.90
2018-05-26T13:27:43.060Z,27.00
2018-05-26T13:30:13.866Z,27.00
2018-05-26T13:32:41.349Z,27.20
2018-05-26T13:35:08.894Z,27.30
2018-05-26T13:37:37.156Z,27.50
2018-05-26T13:40:04.672Z,27.60
2018-05-26T13:42:32.163Z,27.60
2018-05-26T13:45:04.125Z,27.60
2018-05-26T13:47:32.242Z,27.50
2018-05-26T13:49:59.734Z,27.50
2018-05-26T13:52:27.995Z,27.70
2018-05-26T13:54:55.452Z,27.70
2018-05-26T13:57:22.956Z,27.60
2018-05-26T13:59:55.007Z,27.60
2018-05-26T14:02:22.490Z,27.50
2018-05-26T14:04:50.799Z,27.50
2018-05-26T14:07:18.253Z,27.50
2018-05-26T14:09:46.748Z,27.50
2018-05-26T14:12:14.203Z,27.50
2018-05-26T14:14:41.696Z,27.50
2018-05-26T14:17:09.174Z,27.50
2018-05-26T14:19:36.668Z,27.50
2018-05-26T14:22:04.113Z,27.50
2018-05-26T14:24:31.600Z,27.50
2018-05-26T14:27:00.003Z,27.50
2018-05-26T14:29:27.477Z,27.40
2018-05-26T14:31:59.353Z,27.40
2018-05-26T14:34:26.822Z,27.50
2018-05-26T14:36:55.223Z,27.60
2018-05-26T14:39:22.678Z,27.70
2018-05-26T14:41:50.171Z,27.70
2018-05-26T14:44:18.069Z,27.70
2018-05-26T14:46:50.100Z,27.70
2018-05-26T14:49:17.569Z,27.70
2018-05-26T14:51:45.825Z,27.50
2018-05-26T14:54:13.305Z,27.50
2018-05-26T14:56:41.576Z,27.60
2018-05-26T14:59:09.697Z,27.60
2018-05-26T15:01:37.161Z,27.70
2018-05-26T15:04:04.652Z,27.90
2018-05-26T15:06:32.118Z,28.10
2018-05-26T15:08:59.638Z,28.30
2018-05-26T15:11:27.133Z,28.40
2018-05-26T15:13:54.593Z,28.50
2018-05-26T15:16:25.735Z,28.60
2018-05-26T15:18:54.481Z,28.60
2018-05-26T15:21:22.031Z,28.60
2018-05-26T15:23:49.548Z,28.60
2018-05-26T15:26:18.704Z,28.50
2018-05-26T15:28:46.208Z,28.50
2018-05-26T15:31:14.434Z,28.50
2018-05-26T15:33:45.703Z,28.40
2018-05-26T15:36:13.177Z,28.50
2018-05-26T15:38:40.659Z,28.40
2018-05-26T15:41:08.886Z,28.50
2018-05-26T15:43:36.348Z,28.50
2018-05-26T15:46:03.808Z,28.60
2018-05-26T15:48:32.204Z,28.70
2018-05-26T15:51:00.522Z,29.00
2018-05-26T15:53:27.982Z,28.90
2018-05-26T15:55:55.477Z,29.10
2018-05-26T15:58:22.949Z,29.20
2018-05-26T16:00:50.398Z,29.20
2018-05-26T16:03:17.899Z,29.40
2018-05-26T16:05:46.043Z,29.60
2018-05-26T16:08:14.306Z,29.60
2018-05-26T16:10:41.756Z,29.60
2018-05-26T16:13:09.437Z,29.60
2018-05-26T16:15:36.904Z,29.70
2018-05-26T16:18:06.107Z,29.40
2018-05-26T16:20:34.363Z,30.40
2018-05-26T16:23:01.963Z,30.30
2018-05-26T16:25:30.858Z,32.50
2018-05-26T16:27:58.314Z,32.40
2018-05-26T16:30:25.785Z,33.60
2018-05-26T16:32:57.042Z,34.40
2018-05-26T16:35:25.827Z,35.30
2018-05-26T16:37:53.307Z,35.20
2018-05-26T16:40:20.768Z,35.50
2018-05-26T16:42:48.245Z,35.40
2018-05-26T16:45:16.567Z,35.30
2018-05-26T16:47:50.202Z,34.50
2018-05-26T16:50:19.431Z,33.00
2018-05-26T16:52:48.249Z,32.00
2018-05-26T16:55:15.745Z,32.00
2018-05-26T16:57:44.466Z,30.80
2018-05-26T17:00:12.982Z,29.80
2018-05-26T17:02:41.361Z,29.20
2018-05-26T17:05:12.085Z,28.70
2018-05-26T17:07:40.133Z,28.30
2018-05-26T17:10:07.672Z,28.10
2018-05-26T17:12:35.145Z,28.20
2018-05-26T17:15:03.451Z,29.30
2018-05-26T17:17:30.945Z,29.30
2018-05-26T17:19:59.327Z,29.10
2018-05-26T17:22:26.879Z,28.40
2018-05-26T17:24:54.355Z,27.80
2018-05-26T17:27:22.791Z,27.30
2018-05-26T17:29:50.927Z,27.00
2018-05-26T17:32:19.450Z,26.60
2018-05-26T17:34:52.723Z,26.60
2018-05-26T17:37:20.937Z,26.50
2018-05-26T17:39:48.474Z,26.50
2018-05-26T17:42:16.379Z,26.40
2018-05-26T17:44:44.420Z,26.30
2018-05-26T17:47:13.629Z,26.20
2018-05-26T17:49:45.009Z,26.20
2018-05-26T17:52:12.467Z,26.10
2018-05-26T17:54:41.369Z,26.10
2018-05-26T17:57:09.527Z,26.20
2018-05-26T17:59:37.082Z,26.30
2018-05-26T18:02:04.670Z,26.70
2018-05-26T18:04:33.105Z,27.00
2018-05-26T18:07:12.529Z,27.50
2018-05-26T18:09:41.409Z,28.10
2018-05-26T18:12:10.170Z,28.90
2018-05-26T18:14:39.580Z,29.10
2018-05-26T18:17:07.112Z,29.10
2018-05-26T18:19:36.934Z,29.40
2018-05-26T18:22:09.635Z,29.30
2018-05-26T18:24:39.293Z,28.90
2018-05-26T18:27:08.995Z,28.20
2018-05-26T18:29:37.569Z,26.90
2018-05-26T18:32:05.070Z,26.90
2018-05-26T18:34:32.594Z,26.50
2018-05-26T18:37:05.149Z,26.10
2018-05-26T18:39:32.628Z,26.00
2018-05-26T18:42:00.169Z,25.90
2018-05-26T18:44:29.433Z,25.80
2018-05-26T18:46:58.620Z,25.60
2018-05-26T18:49:26.729Z,25.50
2018-05-26T18:52:01.655Z,25.30
2018-05-26T18:54:30.776Z,25.20
2018-05-26T18:57:01.116Z,24.90
2018-05-26T18:59:29.454Z,24.60
2018-05-26T19:02:00.355Z,24.30
2018-05-26T19:04:30.359Z,24.00
2018-05-26T19:06:59.035Z,23.60
2018-05-26T19:09:29.622Z,23.30
2018-05-26T19:12:00.610Z,23.00
2018-05-26T19:14:30.288Z,22.80
2018-05-26T19:17:02.186Z,22.60
2018-05-26T19:19:32.183Z,22.30
2018-05-26T19:22:00.204Z,22.20
2018-05-26T19:24:28.541Z,22.10
2018-05-26T19:26:56.798Z,22.00
2018-05-26T19:29:25.811Z,21.90
2018-05-26T19:31:54.301Z,21.80
2018-05-26T19:34:23.270Z,21.50
2018-05-26T19:36:54.958Z,21.60
2018-05-26T19:39:23.405Z,21.50
2018-05-26T19:41:51.473Z,21.40
2018-05-26T19:44:20.286Z,21.20
2018-05-26T19:46:47.770Z,21.10
2018-05-26T19:49:16.035Z,21.00
2018-05-26T19:51:45.210Z,20.80
2018-05-26T19:54:13.556Z,20.80
2018-05-26T19:56:44.793Z,20.70
2018-05-26T19:59:12.252Z,20.60
2018-05-26T20:01:40.532Z,20.50
2018-05-26T20:04:08.045Z,20.40
2018-05-26T20:06:38.421Z,20.30
2018-05-26T20:09:06.771Z,20.20
2018-05-26T20:11:38.393Z,20.20
2018-05-26T20:14:08.357Z,20.20
2018-05-26T20:16:36.784Z,20.10
2018-05-26T20:19:04.768Z,20.00
2018-05-26T20:21:32.360Z,20.00
2018-05-26T20:23:59.882Z,19.90
2018-05-26T20:26:27.352Z,19.80
2018-05-26T20:28:54.857Z,19.80
2018-05-26T20:31:23.164Z,19.70
2018-05-26T20:33:50.660Z,19.70
2018-05-26T20:36:19.873Z,19.60
2018-05-26T20:38:49.814Z,19.60
2018-05-26T20:41:17.288Z,19.50
2018-05-26T20:43:46.936Z,19.40
2018-05-26T20:46:15.963Z,19.40
2018-05-26T20:48:45.288Z,19.30
2018-05-26T20:51:13.775Z,19.20
2018-05-26T20:53:41.543Z,19.20
2018-05-26T20:56:10.057Z,19.20
2018-05-26T20:58:37.523Z,19.20
2018-05-26T21:01:05.043Z,19.30
2018-05-26T21:03:33.247Z,19.30
2018-05-26T21:06:01.510Z,19.20
2018-05-26T21:08:30.392Z,19.10
2018-05-26T21:10:59.129Z,19.10
2018-05-26T21:13:26.587Z,19.10
2018-05-26T21:15:54.079Z,19.10
2018-05-26T21:18:21.584Z,19.00
2018-05-26T21:20:50.816Z,18.80
2018-05-26T21:23:18.385Z,18.80
2018-05-26T21:25:45.976Z,18.70
2018-05-26T21:28:13.483Z,18.70
2018-05-26T21:30:41.108Z,18.60
2018-05-26T21:33:09.408Z,18.70
2018-05-26T21:35:36.935Z,18.60
2018-05-26T21:38:04.828Z,18.70
2018-05-26T21:40:32.376Z,18.70
2018-05-26T21:43:01.609Z,18.50
2018-05-26T21:45:29.159Z,18.50
2018-05-26T21:47:56.666Z,18.40
2018-05-26T21:50:24.167Z,18.40
2018-05-26T21:52:55.001Z,18.30
2018-05-26T21:55:22.505Z,18.30
2018-05-26T21:57:51.544Z,18.20
2018-05-26T22:00:19.103Z,18.20
2018-05-26T22:02:46.668Z,18.20
2018-05-26T22:05:14.178Z,18.10
2018-05-26T22:07:41.783Z,18.10
2018-05-26T22:10:10.223Z,18.00
2018-05-26T22:12:37.734Z,17.90
2018-05-26T22:15:05.337Z,17.90
2018-05-26T22:17:32.824Z,17.80
2018-05-26T22:20:00.362Z,17.80
2018-05-26T22:22:27.842Z,17.70
2018-05-26T22:24:55.330Z,17.70
2018-05-26T22:27:23.793Z,17.70
2018-05-26T22:29:51.396Z,17.70
2018-05-26T22:32:18.897Z,17.70
2018-05-26T22:34:46.444Z,17.60
2018-05-26T22:37:13.961Z,17.60
2018-05-26T22:39:41.505Z,17.50
2018-05-26T22:42:08.977Z,17.50
2018-05-26T22:44:36.506Z,17.50
2018-05-26T22:47:04.024Z,17.50
2018-05-26T22:49:32.381Z,17.40
2018-05-26T22:51:59.858Z,17.40
2018-05-26T22:54:32.116Z,17.30
2018-05-26T22:56:59.595Z,17.30
2018-05-26T22:59:27.125Z,17.30
2018-05-26T23:01:54.590Z,17.20
2018-05-26T23:04:22.119Z,17.10
2018-05-26T23:06:49.617Z,17.10
2018-05-26T23:09:21.664Z,17.20
2018-05-26T23:11:49.169Z,17.20
2018-05-26T23:14:16.654Z,17.10
2018-05-26T23:16:44.160Z,17.00
2018-05-26T23:19:11.761Z,17.00
2018-05-26T23:21:39.265Z,16.90
2018-05-26T23:24:06.746Z,17.00
2018-05-26T23:26:34.239Z,16.90
2018-05-26T23:29:01.814Z,16.80
2018-05-26T23:31:30.984Z,16.80
2018-05-26T23:33:58.441Z,16.80
2018-05-26T23:36:25.936Z,16.80
2018-05-26T23:38:53.406Z,16.80
2018-05-26T23:41:25.621Z,16.90
2018-05-26T23:43:53.856Z,16.80
2018-05-26T23:46:21.573Z,16.80
2018-05-26T23:48:49.791Z,16.80
2018-05-26T23:51:17.249Z,16.70
2018-05-26T23:53:44.731Z,16.70
2018-05-26T23:56:12.278Z,16.60
2018-05-26T23:58:42.669Z,16.50
